Friday, April 20, 2018, 10:41 AM GMT
Back to Local

CWNH, Riviere Du Loup, Que.

Location: , , Canada Lat: 47.8
Local Time: 10:41 AM GMT (10:41 GMT) Lon: -69.55
Time Zone: GMT Elev: 485 ft

Show me the last for .
Show Decoded

2018-04-20 10:00 METAR CWNH 201000Z AUTO 36007KT 00/M00 RMK AO1 2PAST HR SOG 37 3010 SLP117 P0001
                 T00001003 50005 =
2018-04-20 09:00 METAR CWNH 200900Z AUTO 01006KT M00/M00 RMK AO1 SOG 37 2010 SLP108 T10011003
                 50003 =
2018-04-20 08:00 METAR CWNH 200800Z AUTO 36006KT M00/M00 RMK AO1 3PAST HR SOG 37 2010 SLP103
                 P0001 T10021004 50003 =
2018-04-20 07:00 METAR CWNH 200700Z AUTO 01006KT M00/01 RMK AO1 SOG 36 2010 SLP100 T10020005 =
2018-04-20 06:00 METAR CWNH 200600Z AUTO 01006KT M00/M01 RMK AO1 2PAST HR SOG 35 3000 SLP096
                 P0001 T10021006 50006 =
2018-04-20 05:00 METAR CWNH 200500Z AUTO 01007KT M00/M01 RMK AO1 SOG 35 3000 SLP093 T10041007
                 50004 =
2018-04-20 04:00 METAR CWNH 200400Z AUTO 01009KT M01/M01 RMK AO1 SOG 35 8000 SLP089 T10051008
                 50004 =
2018-04-20 03:00 METAR CWNH 200300Z AUTO 01007KT M01/M01 RMK AO1 2PAST HR SOG 36 0000 SLP090
                 P0001 T10051008 50004 =
2018-04-20 02:00 METAR CWNH 200200Z AUTO 01007KT 01/M01 RMK AO1 2PAST HR SOG 36 1010 SLP091 P0001
                 T00051008 50002 =
2018-04-20 01:00 METAR CWNH 200100Z AUTO 01009KT 01/M01 RMK AO1 SOG 35 1010 SLP090 T00051009 =
2018-04-20 00:00 METAR CWNH 200000Z AUTO 01006KT M00/M01 RMK AO1 SOG 35 1010 SLP086 T10041008 =
2018-04-19 23:00 METAR CWNH 192300Z AUTO 02006KT 00/M01 RMK AO1 SOG 36 2020 SLP081 T00001006 =
2018-04-19 22:00 METAR CWNH 192200Z AUTO 01008KT 01/M00 RMK AO1 SOG 36 2020 SLP073 T00111002 =
2018-04-19 21:00 METAR CWNH 192100Z AUTO 01008KT 02/M01 RMK AO1 SOG 36 3010 SLP067 T00231008 =
2018-04-19 20:00 METAR CWNH 192000Z AUTO 25004KT 04/M02 RMK AO1 SOG 36 3010 SLP058 T00421023 =
2018-04-19 19:00 METAR CWNH 191900Z AUTO 26005KT 04/M02 RMK AO1 SOG 36 3000 SLP052 T00441017 =
2018-04-19 18:00 METAR CWNH 191800Z AUTO 27005KT 05/M01 RMK AO1 SOG 37 2000 SLP049 T00471014 =
2018-04-19 17:00 METAR CWNH 191700Z AUTO 18002KT 05/M02 RMK AO1 SOG 37 1000 SLP046 T00531016 =
2018-04-19 16:00 METAR CWNH 191600Z AUTO 25005KT 04/M01 RMK AO1 SOG 38 1010 SLP045 T00411012 =
2018-04-19 15:00 METAR CWNH 191500Z AUTO 24006KT 04/M00 RMK AO1 SOG 39 3010 SLP042 T00401001 =
2018-04-19 14:00 METAR CWNH 191400Z AUTO 22005KT 03/M00 RMK AO1 SOG 39 1010 SLP037 T00341001 =
2018-04-19 13:00 METAR CWNH 191300Z AUTO 22006KT 03/M00 RMK AO1 SOG 39 1020 SLP032 T00271004 =
2018-04-19 12:00 METAR CWNH 191200Z AUTO 23006KT 02/01 RMK AO1 SOG 39 1020 SLP028 T00170005 =
2018-04-19 11:00 METAR CWNH 191100Z AUTO 21004KT 01/01 RMK AO1 SOG 39 3010 SLP022 T00050007 =

Support USWX by starting your Amazon purchase here.